In Rescue
 
Open Full Screen Window  High Contrast Mode
Wind Gusting 00 knots
11
March 01, 2024 2:45 PM EST
Weather Information
Wind Direction
  160 °
Wind Speed
  11 kt (13 mph)
Wind Gust
  00 kt (0 mph)
Altimeter
30.17 in
Visibility
10 SM
Temperature
10° C
50° F
Dewpoint
-10° C
14° F
Humidity
23%
Sky Condition
Clear
VFR

METAR KCFS 011945Z AUTO 16011KT 10SM CLR 10/M10 A3017 RMK AO2 T01031103

FAA Disclaimer: The data displayed is for advisory purposes only and is not to be used for flight planning or operations.